Time;durP1;ratioP1;P1;durP2;ratioP2;P2;SDS_P1;SDS_P2;PMS_P1;PMS_P2;Temp;Humidity;BMP_temperature;BMP_pressure;BME280_temperature;BME280_humidity;BME280_pressure;Samples;Min_cycle;Max_cycle;Signal;HPM_P1;HPM_P2
2022/03/10 00:00:10;;;;;;;23.10;17.83;;;;;;;9.95;55.66;99321.56;4917354;29;20020;-49
2022/03/10 00:02:36;;;;;;;23.05;16.88;;;;;;;9.89;55.86;99322.31;4917226;29;20398;-50
2022/03/10 00:05:03;;;;;;;28.92;21.27;;;;;;;9.86;55.80;99325.28;4915910;29;20024;-49
2022/03/10 00:07:28;;;;;;;25.95;20.40;;;;;;;9.82;55.58;99318.75;4915894;29;20032;-48
2022/03/10 00:09:54;;;;;;;24.73;17.98;;;;;;;9.73;55.11;99318.84;4916873;29;20036;-49
2022/03/10 00:12:20;;;;;;;28.42;18.58;;;;;;;9.59;55.60;99324.88;4917089;29;20103;-49
2022/03/10 00:14:46;;;;;;;28.23;20.23;;;;;;;9.56;56.07;99326.06;4916821;29;20048;-49
2022/03/10 00:17:12;;;;;;;33.00;20.00;;;;;;;9.54;56.16;99325.41;4917045;29;20024;-50
2022/03/10 00:19:37;;;;;;;25.77;16.70;;;;;;;9.54;56.46;99327.22;4917251;29;20091;-50
2022/03/10 00:22:04;;;;;;;30.83;22.58;;;;;;;9.77;56.16;99325.34;4916947;29;20533;-50
2022/03/10 00:24:29;;;;;;;32.50;20.23;;;;;;;9.77;55.67;99327.16;4916917;29;20119;-50
2022/03/10 00:26:55;;;;;;;29.70;19.65;;;;;;;9.74;55.80;99332.78;4915490;29;20598;-47
2022/03/10 00:29:21;;;;;;;28.48;19.95;;;;;;;9.92;55.30;99332.41;4916793;29;20032;-50
2022/03/10 00:31:47;;;;;;;36.42;26.88;;;;;;;10.03;55.37;99328.56;4915638;29;20059;-49
2022/03/10 00:34:13;;;;;;;27.58;19.75;;;;;;;10.25;54.84;99330.25;4916621;29;20565;-50
2022/03/10 00:36:39;;;;;;;25.60;18.63;;;;;;;10.41;53.91;99331.09;4916652;29;20028;-48
2022/03/10 00:39:04;;;;;;;31.13;21.13;;;;;;;10.25;54.38;99332.06;4916666;29;20032;-49
2022/03/10 00:41:31;;;;;;;29.90;16.77;;;;;;;10.04;54.46;99331.00;4915235;29;20063;-49
2022/03/10 00:43:56;;;;;;;28.13;21.25;;;;;;;9.77;54.53;99335.03;4915241;29;20072;-49
2022/03/10 00:46:22;;;;;;;29.58;21.65;;;;;;;9.56;55.45;99339.16;4916515;29;20606;-49
2022/03/10 00:48:48;;;;;;;22.05;18.30;;;;;;;9.36;55.79;99338.03;4916433;29;20406;-50
2022/03/10 00:51:13;;;;;;;24.73;19.17;;;;;;;9.25;56.14;99339.25;4916381;29;20047;-50
2022/03/10 00:53:39;;;;;;;28.13;18.40;;;;;;;9.26;56.48;99338.25;4916345;29;20031;-49
2022/03/10 00:56:05;;;;;;;31.38;19.25;;;;;;;9.47;56.54;99337.59;4916296;29;20020;-49
2022/03/10 00:58:31;;;;;;;29.80;20.00;;;;;;;9.64;56.11;99335.66;4916280;29;20035;-50
2022/03/10 01:00:57;;;;;;;32.90;19.17;;;;;;;9.82;56.87;99334.47;4914978;29;20498;-50
2022/03/10 01:03:23;;;;;;;28.58;19.30;;;;;;;9.86;56.43;99333.13;4914960;29;20029;-50
2022/03/10 01:05:49;;;;;;;123.90;104.68;;;;;;;9.84;55.96;99335.13;4916148;29;20028;-49
2022/03/10 01:08:16;;;;;;;26.65;21.20;;;;;;;9.79;55.67;99339.09;4916139;29;20031;-50
2022/03/10 01:10:41;;;;;;;32.80;21.83;;;;;;;9.89;55.58;99341.47;4916090;29;20028;-50
2022/03/10 01:13:16;;;;;;;74.57;61.45;;;;;;;9.86;55.25;99333.13;4914625;29;20174;-49
2022/03/10 01:15:42;;;;;;;21.70;17.98;;;;;;;9.77;55.00;99335.84;4916203;29;20450;-49
2022/03/10 01:18:09;;;;;;;22.50;17.77;;;;;;;9.66;55.58;99335.44;4914736;29;20056;-49
2022/03/10 01:20:35;;;;;;;22.50;17.30;;;;;;;9.52;55.80;99340.50;4915946;29;20138;-49
2022/03/10 01:23:01;;;;;;;21.95;16.67;;;;;;;9.59;57.32;99343.22;4914106;29;20028;-50
2022/03/10 01:25:26;;;;;;;22.88;16.58;;;;;;;9.60;56.17;99342.25;4914567;29;20027;-50
2022/03/10 01:27:52;;;;;;;24.35;16.80;;;;;;;9.58;56.15;99345.03;4914583;29;20040;-49
2022/03/10 01:30:18;;;;;;;22.70;16.73;;;;;;;9.52;55.59;99339.69;4915782;29;20029;-50
2022/03/10 01:32:44;;;;;;;19.52;16.70;;;;;;;9.56;55.98;99339.16;4915789;29;20028;-50
2022/03/10 01:35:10;;;;;;;23.27;17.45;;;;;;;9.50;55.57;99339.88;4915637;29;20036;-49
2022/03/10 01:37:39;;;;;;;20.98;16.80;;;;;;;9.60;56.25;99335.19;4915790;29;20403;-49
2022/03/10 01:40:14;;;;;;;29.85;23.05;;;;;;;9.86;55.40;99322.66;4915758;29;20032;-49
2022/03/10 01:42:41;;;;;;;23.83;18.35;;;;;;;9.92;55.08;99332.41;4914466;29;20038;-49
2022/03/10 01:45:07;;;;;;;26.23;19.58;;;;;;;9.82;54.47;99337.09;4915646;29;20032;-50
2022/03/10 01:47:33;;;;;;;21.23;17.60;;;;;;;9.83;54.63;99336.94;4915666;29;20047;-51
2022/03/10 01:49:59;;;;;;;25.33;17.55;;;;;;;9.83;54.61;99336.13;4915585;29;20060;-49
2022/03/10 01:52:25;;;;;;;22.77;15.73;;;;;;;9.74;55.03;99333.59;4915847;29;20052;-50
2022/03/10 01:54:51;;;;;;;21.77;16.35;;;;;;;9.96;54.96;99333.69;4914263;29;20021;-49
2022/03/10 01:57:17;;;;;;;25.73;16.80;;;;;;;10.33;54.29;99338.06;4915513;29;20028;-48
2022/03/10 01:59:43;;;;;;;20.38;17.02;;;;;;;10.50;53.30;99332.59;4915503;29;20163;-49
2022/03/10 02:02:09;;;;;;;31.63;17.15;;;;;;;10.59;53.18;99337.56;4914219;29;20119;-49
2022/03/10 02:04:35;;;;;;;26.25;18.13;;;;;;;10.55;53.26;99341.56;4915510;29;20047;-49
2022/03/10 02:07:04;;;;;;;32.80;18.70;;;;;;;10.65;52.90;99335.22;4914165;29;20506;-49
2022/03/10 02:12:14;;;;;;;26.55;17.40;;;;;;;10.83;51.85;99334.81;4915446;29;20034;-49
2022/03/10 02:17:25;;;;;;;33.28;28.15;;;;;;;10.45;52.64;99327.91;4915486;29;20119;-49
2022/03/10 02:19:53;;;;;;;30.08;20.48;;;;;;;10.30;52.69;99332.34;4914047;29;20119;-49
2022/03/10 02:22:20;;;;;;;26.88;19.00;;;;;;;10.11;53.03;99329.25;4915309;29;20088;-48
2022/03/10 02:24:48;;;;;;;26.05;18.67;;;;;;;9.91;53.60;99328.19;4914315;29;20028;-49
2022/03/10 02:27:19;;;;;;;29.15;17.05;;;;;;;9.99;53.79;99328.91;4914030;29;20032;-49
2022/03/10 02:29:49;;;;;;;26.10;16.42;;;;;;;10.06;53.90;99330.78;4915307;29;20088;-49
2022/03/10 02:32:16;;;;;;;25.10;17.67;;;;;;;10.08;53.58;99332.25;4913904;29;20040;-50
2022/03/10 02:34:43;;;;;;;33.90;29.27;;;;;;;10.00;53.88;99333.16;4918300;29;20484;-49
2022/03/10 02:37:09;;;;;;;23.60;18.17;;;;;;;9.85;54.22;99334.94;4917507;29;20024;-49
2022/03/10 02:39:35;;;;;;;21.48;15.93;;;;;;;9.86;54.66;99333.13;4918770;29;20099;-49
2022/03/10 02:42:02;;;;;;;25.83;17.50;;;;;;;9.83;54.26;99331.69;4917372;29;20024;-49
2022/03/10 02:44:28;;;;;;;20.73;16.08;;;;;;;9.94;55.00;99335.66;4918718;29;20028;-49
2022/03/10 02:46:54;;;;;;;20.60;15.95;;;;;;;9.92;54.72;99335.03;4918630;29;20163;-48
2022/03/10 02:49:20;;;;;;;17.50;13.93;;;;;;;9.87;55.22;99334.78;4918624;29;20025;-49
2022/03/10 02:51:46;;;;;;;19.95;14.45;;;;;;;9.92;55.88;99341.13;4917283;29;20032;-50
2022/03/10 02:54:12;;;;;;;15.98;12.52;;;;;;;10.07;55.38;99332.44;4917180;29;20619;-49
2022/03/10 02:56:37;;;;;;;18.05;13.32;;;;;;;10.09;55.58;99333.06;4918463;29;20107;-49
2022/03/10 02:59:04;;;;;;;17.40;12.38;;;;;;;10.17;55.43;99333.78;4918489;29;20161;-49
2022/03/10 03:01:30;;;;;;;19.95;13.82;;;;;;;10.35;55.23;99325.56;4918447;29;20059;-49
2022/03/10 03:03:56;;;;;;;18.48;12.70;;;;;;;10.37;54.95;99322.78;4918347;29;20180;-49
2022/03/10 03:06:22;;;;;;;18.08;13.63;;;;;;;10.37;55.05;99330.66;4918313;29;20487;-49
2022/03/10 03:08:48;;;;;;;16.13;13.85;;;;;;;10.34;54.74;99329.19;4917156;29;20116;-49
2022/03/10 03:11:14;;;;;;;19.23;14.45;;;;;;;10.24;54.68;99325.19;4916863;29;20127;-50
2022/03/10 03:13:39;;;;;;;17.58;14.07;;;;;;;10.11;55.38;99338.94;4916571;29;20052;-49
2022/03/10 03:16:05;;;;;;;16.45;13.70;;;;;;;9.94;55.35;99335.66;4918125;29;20490;-49
2022/03/10 03:18:31;;;;;;;21.63;16.52;;;;;;;9.97;55.83;99330.88;4918044;29;20039;-50
2022/03/10 03:20:57;;;;;;;27.60;21.45;;;;;;;10.07;55.50;99329.81;4916781;29;20060;-50
2022/03/10 03:23:26;;;;;;;18.60;16.60;;;;;;;10.20;54.77;99328.19;4916703;29;20096;-49
2022/03/10 03:25:52;;;;;;;24.58;17.83;;;;;;;10.12;55.22;99322.19;4916689;29;20475;-50
2022/03/10 03:28:21;;;;;;;18.70;14.77;;;;;;;10.16;55.23;99323.47;4917897;29;20031;-50
2022/03/10 03:30:48;;;;;;;17.23;14.05;;;;;;;10.24;55.09;99322.56;4916560;29;20027;-49
2022/03/10 03:33:13;;;;;;;28.88;16.20;;;;;;;10.17;55.16;99330.34;4917858;29;20103;-48
2022/03/10 03:35:39;;;;;;;20.98;14.20;;;;;;;10.14;55.07;99323.66;4917796;29;20455;-49
2022/03/10 03:38:05;;;;;;;18.80;15.48;;;;;;;9.93;55.55;99323.56;4916413;29;20047;-49
2022/03/10 03:40:31;;;;;;;18.65;14.68;;;;;;;9.74;55.99;99319.69;4916448;29;20063;-49
2022/03/10 03:42:56;;;;;;;17.40;13.35;;;;;;;9.75;56.57;99324.72;4916660;29;20372;-49
2022/03/10 03:45:22;;;;;;;21.48;13.77;;;;;;;9.73;56.72;99326.69;4916959;29;20055;-49
2022/03/10 03:47:48;;;;;;;20.38;16.52;;;;;;;9.69;56.33;99317.56;4917578;29;20111;-50
2022/03/10 03:50:14;;;;;;;20.63;14.80;;;;;;;9.63;56.60;99326.16;4916174;29;20091;-49
2022/03/10 03:52:40;;;;;;;24.63;17.65;;;;;;;9.64;57.28;99321.72;4917489;29;20036;-50
2022/03/10 03:55:06;;;;;;;18.15;13.75;;;;;;;9.75;56.58;99326.53;4917333;29;20407;-49
2022/03/10 03:57:32;;;;;;;19.10;13.15;;;;;;;9.80;56.57;99324.19;4917456;29;20024;-49
2022/03/10 03:59:58;;;;;;;17.73;14.13;;;;;;;9.93;56.63;99323.56;4916089;29;20051;-50
2022/03/10 04:02:23;;;;;;;17.17;14.13;;;;;;;9.99;56.05;99331.53;4916040;29;20032;-49
2022/03/10 04:04:49;;;;;;;17.35;12.50;;;;;;;10.00;55.94;99321.88;4917331;29;20080;-49
2022/03/10 04:07:15;;;;;;;18.33;13.95;;;;;;;10.02;55.61;99322.50;4915904;29;20409;-49
2022/03/10 04:09:41;;;;;;;20.00;13.50;;;;;;;10.06;55.91;99329.00;4915959;29;20103;-49
2022/03/10 04:12:07;;;;;;;18.25;11.73;;;;;;;10.21;55.40;99329.00;4915846;29;20494;-50
2022/03/10 04:14:33;;;;;;;16.27;13.63;;;;;;;10.36;55.07;99327.22;4916808;29;20046;-50
2022/03/10 04:16:59;;;;;;;19.45;15.75;;;;;;;10.48;54.81;99310.97;4917050;29;20024;-49
2022/03/10 04:19:24;;;;;;;16.58;12.52;;;;;;;10.72;54.68;99325.59;4915681;29;20191;-50
2022/03/10 04:21:50;;;;;;;22.17;13.35;;;;;;;10.99;53.94;99308.31;4915670;29;20020;-49
2022/03/10 04:24:16;;;;;;;19.13;13.98;;;;;;;11.18;53.06;99322.63;4915648;29;20454;-50
2022/03/10 04:26:42;;;;;;;23.25;13.20;;;;;;;11.20;52.79;99321.41;4916846;29;20111;-50
2022/03/10 04:29:08;;;;;;;19.30;12.40;;;;;;;11.24;52.30;99324.50;4916821;29;20028;-49
2022/03/10 04:31:33;;;;;;;17.77;12.15;;;;;;;11.30;52.27;99328.19;4915511;29;20028;-49
2022/03/10 04:33:59;;;;;;;22.40;14.93;;;;;;;11.22;52.63;99323.06;4916864;29;20051;-49
2022/03/10 04:36:25;;;;;;;23.38;14.50;;;;;;;11.20;52.26;99324.03;4915426;29;20031;-49
2022/03/10 04:38:51;;;;;;;22.00;13.65;;;;;;;11.33;52.07;99318.13;4915339;29;20031;-50
2022/03/10 04:41:17;;;;;;;20.40;15.15;;;;;;;11.29;51.45;99323.91;4916605;29;20020;-49
2022/03/10 04:43:43;;;;;;;18.20;14.50;;;;;;;11.11;52.01;99314.69;4915299;29;20032;-50
2022/03/10 04:46:08;;;;;;;23.15;15.80;;;;;;;10.94;51.91;99314.09;4916532;29;20024;-49
2022/03/10 04:48:34;;;;;;;35.08;16.20;;;;;;;10.85;52.17;99312.63;4916470;29;20043;-49
2022/03/10 04:51:00;;;;;;;21.50;14.32;;;;;;;10.78;52.35;99316.97;4915101;29;20034;-49
2022/03/10 04:53:26;;;;;;;20.10;15.27;;;;;;;10.72;52.59;99315.88;4916364;29;20084;-49
2022/03/10 04:55:52;;;;;;;21.75;15.48;;;;;;;10.66;52.38;99321.06;4914896;29;20028;-50
2022/03/10 04:58:18;;;;;;;22.83;16.80;;;;;;;10.58;52.36;99320.22;4915608;29;20106;-50
2022/03/10 05:00:44;;;;;;;17.73;13.90;;;;;;;10.49;53.21;99316.06;4914960;29;20115;-47
2022/03/10 05:03:10;;;;;;;17.77;13.77;;;;;;;10.55;53.06;99323.19;4916200;29;20111;-49
2022/03/10 05:05:36;;;;;;;31.90;16.60;;;;;;;10.57;52.47;99309.88;4916157;29;20028;-49
2022/03/10 05:08:02;;;;;;;23.42;15.88;;;;;;;10.48;52.61;99314.41;4916188;29;20062;-49
2022/03/10 05:10:28;;;;;;;36.90;30.38;;;;;;;10.29;52.97;99315.78;4914782;29;20064;-49
2022/03/10 05:12:57;;;;;;;25.17;17.70;;;;;;;10.24;53.55;99315.53;4915793;29;20032;-49
2022/03/10 05:15:26;;;;;;;21.00;15.55;;;;;;;10.29;53.46;99315.78;4914738;29;20510;-49
2022/03/10 05:17:53;;;;;;;30.60;20.83;;;;;;;10.17;53.51;99320.66;4916025;29;20446;-49
2022/03/10 05:20:19;;;;;;;35.92;21.08;;;;;;;9.98;53.77;99313.38;4915963;29;20080;-49
2022/03/10 05:22:48;;;;;;;28.38;17.60;;;;;;;9.83;53.90;99315.16;4914562;29;20051;-50
2022/03/10 05:25:16;;;;;;;25.00;17.67;;;;;;;9.67;54.51;99319.56;4915901;29;20032;-49
2022/03/10 05:27:42;;;;;;;27.63;21.42;;;;;;;9.51;54.41;99319.72;4914559;29;20029;-49
2022/03/10 05:30:09;;;;;;;28.80;19.58;;;;;;;9.40;55.01;99313.91;4915825;29;20024;-49
2022/03/10 05:32:35;;;;;;;24.88;18.40;;;;;;;9.35;55.37;99321.47;4914522;29;20083;-49
2022/03/10 05:35:02;;;;;;;25.13;21.83;;;;;;;9.45;55.23;99316.00;4915664;29;20024;-49
2022/03/10 05:37:28;;;;;;;33.28;20.30;;;;;;;9.51;55.05;99314.47;4915742;29;20059;-49
2022/03/10 05:39:54;;;;;;;30.85;20.63;;;;;;;9.51;54.74;99317.91;4915869;29;20376;-49
2022/03/10 05:42:20;;;;;;;27.33;21.75;;;;;;;9.45;54.56;99316.00;4915686;29;20032;-49
2022/03/10 05:44:47;;;;;;;26.58;19.30;;;;;;;9.30;54.53;99317.78;4914333;29;20028;-49
2022/03/10 05:47:13;;;;;;;29.20;20.40;;;;;;;9.18;55.08;99317.38;4914365;29;20027;-50
2022/03/10 05:49:38;;;;;;;25.38;18.63;;;;;;;9.15;55.44;99321.13;4914317;29;20107;-49
2022/03/10 05:52:05;;;;;;;42.45;34.47;;;;;;;8.97;55.58;99318.00;4915566;29;20032;-49
2022/03/10 05:54:32;;;;;;;40.50;21.52;;;;;;;8.80;55.96;99325.16;4914279;29;20075;-49
2022/03/10 05:56:58;;;;;;;32.03;20.40;;;;;;;8.82;56.50;99323.19;4915563;29;20028;-49
2022/03/10 05:59:24;;;;;;;34.67;22.10;;;;;;;8.96;55.80;99327.66;4915566;29;20038;-50
2022/03/10 06:01:49;;;;;;;27.67;18.65;;;;;;;9.05;55.53;99325.00;4915514;29;20035;-49
2022/03/10 06:04:16;;;;;;;38.22;16.73;;;;;;;9.15;55.03;99320.34;4915621;29;20513;-50
2022/03/10 06:06:44;;;;;;;25.80;16.90;;;;;;;9.27;54.86;99332.03;4915562;29;20028;-49
2022/03/10 06:09:11;;;;;;;35.22;25.25;;;;;;;9.27;54.34;99331.22;4918018;29;20020;-48
2022/03/10 06:11:37;;;;;;;40.53;27.25;;;;;;;9.08;55.09;99335.13;4919308;29;20542;-50
2022/03/10 06:14:03;;;;;;;29.60;20.25;;;;;;;8.95;55.17;99346.16;4919006;29;20195;-49
2022/03/10 06:16:29;;;;;;;32.00;26.13;;;;;;;8.74;55.08;99344.97;4919220;29;20044;-49
2022/03/10 06:18:55;;;;;;;26.38;21.10;;;;;;;8.50;56.48;99347.72;4917858;29;20088;-49
2022/03/10 06:21:22;;;;;;;33.08;24.38;;;;;;;8.53;56.41;99342.97;4919176;29;20055;-49
2022/03/10 06:23:48;;;;;;;22.77;19.58;;;;;;;8.82;55.89;99346.75;4917808;29;20032;-49
2022/03/10 06:26:14;;;;;;;28.05;23.48;;;;;;;9.00;54.31;99347.28;4919018;29;20503;-49
2022/03/10 06:28:41;;;;;;;28.95;22.17;;;;;;;9.20;54.36;99344.19;4917715;29;20028;-50
2022/03/10 06:31:07;;;;;;;24.65;20.90;;;;;;;9.79;53.08;99336.47;4918933;29;20036;-49
2022/03/10 06:33:35;;;;;;;24.85;19.27;;;;;;;10.28;51.51;99336.94;4918845;29;20030;-49
2022/03/10 06:36:01;;;;;;;23.05;16.90;;;;;;;10.72;50.78;99331.66;4918841;29;20111;-49
2022/03/10 06:38:26;;;;;;;34.70;22.58;;;;;;;11.30;49.24;99333.44;4917615;29;20238;-48
2022/03/10 06:40:52;;;;;;;24.23;18.35;;;;;;;11.74;47.71;99329.75;4917466;29;20123;-49
2022/03/10 06:43:18;;;;;;;35.63;19.98;;;;;;;11.89;46.97;99332.28;4918722;29;20027;-50
2022/03/10 06:45:44;;;;;;;37.25;23.27;;;;;;;12.10;46.27;99339.31;4918681;29;20036;-49
2022/03/10 06:48:10;;;;;;;23.05;16.65;;;;;;;12.47;46.65;99345.16;4918676;29;20025;-49
2022/03/10 06:50:37;;;;;;;22.58;17.50;;;;;;;12.47;46.94;99345.16;4918595;29;20100;-49
2022/03/10 06:53:03;;;;;;;38.88;20.98;;;;;;;11.87;48.06;99337.72;4917304;29;20020;-49
2022/03/10 06:55:29;;;;;;;33.60;21.02;;;;;;;11.32;48.45;99344.56;4918722;29;20028;-50
2022/03/10 06:57:55;;;;;;;27.50;21.45;;;;;;;11.08;49.09;99340.50;4917185;29;20494;-49
2022/03/10 07:00:23;;;;;;;36.05;18.98;;;;;;;11.06;49.56;99348.56;4918467;29;20462;-49
2022/03/10 07:02:50;;;;;;;27.42;18.45;;;;;;;11.14;48.22;99347.63;4917125;29;20031;-49
2022/03/10 07:05:16;;;;;;;30.55;19.35;;;;;;;10.91;48.51;99343.38;4918336;29;20039;-49
2022/03/10 07:07:42;;;;;;;25.63;19.25;;;;;;;11.00;48.86;99349.31;4916926;29;20111;-49
2022/03/10 07:10:09;;;;;;;26.17;16.23;;;;;;;11.67;47.74;99355.16;4918282;29;20106;-49
2022/03/10 07:12:36;;;;;;;24.45;16.00;;;;;;;12.33;45.78;99346.91;4918211;29;20024;-49
2022/03/10 07:15:04;;;;;;;30.40;18.85;;;;;;;12.72;45.03;99345.47;4917909;29;20068;-49
2022/03/10 07:17:30;;;;;;;33.40;19.10;;;;;;;13.06;43.86;99344.53;4916848;29;20035;-49
2022/03/10 07:19:56;;;;;;;20.25;17.15;;;;;;;13.26;43.37;99341.91;4917054;29;20035;-49
2022/03/10 07:22:22;;;;;;;26.55;16.27;;;;;;;13.76;42.41;99347.63;4918051;29;20491;-50
2022/03/10 07:24:48;;;;;;;20.52;14.25;;;;;;;14.29;41.59;99341.44;4918040;29;20510;-50
2022/03/10 07:27:13;;;;;;;24.67;15.52;;;;;;;14.88;39.99;99354.63;4918008;29;20103;-49
2022/03/10 07:29:39;;;;;;;22.35;16.75;;;;;;;15.20;39.02;99347.50;4916607;29;20067;-50
2022/03/10 07:32:05;;;;;;;21.30;15.98;;;;;;;15.51;38.64;99348.50;4917877;29;20055;-49
2022/03/10 07:34:31;;;;;;;21.80;16.15;;;;;;;15.62;37.86;99345.16;4916533;29;20021;-50
2022/03/10 07:36:57;;;;;;;21.75;16.48;;;;;;;15.46;38.14;99354.44;4916477;29;20525;-50
2022/03/10 07:39:23;;;;;;;25.23;16.65;;;;;;;15.35;38.72;99352.47;4917746;29;20040;-50
2022/03/10 07:41:49;;;;;;;20.77;14.23;;;;;;;15.59;38.52;99348.22;4917708;29;20023;-50
2022/03/10 07:44:15;;;;;;;21.88;15.55;;;;;;;16.25;36.78;99343.34;4917696;29;20036;-49
2022/03/10 07:46:40;;;;;;;17.45;12.63;;;;;;;16.59;36.69;99344.56;4917623;29;20475;-50
2022/03/10 07:49:08;;;;;;;23.13;16.40;;;;;;;17.22;35.17;99339.84;4916374;29;20039;-50
2022/03/10 07:51:34;;;;;;;22.13;15.98;;;;;;;16.96;35.11;99340.03;4917507;29;20020;-50
2022/03/10 07:54:00;;;;;;;33.97;16.05;;;;;;;17.05;35.68;99337.06;4917469;29;20032;-50
2022/03/10 07:56:26;;;;;;;22.35;14.23;;;;;;;17.20;34.78;99337.44;4917452;29;20091;-50
2022/03/10 07:58:52;;;;;;;23.38;15.13;;;;;;;17.29;34.99;99338.72;4916156;29;20028;-50
2022/03/10 08:01:18;;;;;;;18.90;14.70;;;;;;;17.22;34.62;99339.84;4917386;29;20039;-50
2022/03/10 08:03:47;;;;;;;25.67;15.00;;;;;;;17.35;34.61;99345.78;4916065;29;20165;-49
2022/03/10 08:06:13;;;;;;;26.92;16.35;;;;;;;17.60;34.50;99346.59;4917334;29;20024;-50
2022/03/10 08:08:39;;;;;;;22.52;14.13;;;;;;;17.74;34.26;99343.47;4917492;29;20106;-50
2022/03/10 08:11:08;;;;;;;21.33;14.05;;;;;;;17.78;34.16;99341.19;4915827;29;20119;-50
2022/03/10 08:13:34;;;;;;;21.42;14.60;;;;;;;18.20;33.37;99340.25;4916813;29;20044;-50
2022/03/10 08:16:00;;;;;;;19.23;13.18;;;;;;;18.36;32.61;99342.19;4915784;29;20099;-50
2022/03/10 08:18:27;;;;;;;20.35;13.55;;;;;;;18.62;32.86;99340.03;4916022;29;20028;-50
2022/03/10 08:20:55;;;;;;;24.85;13.25;;;;;;;19.08;31.47;99340.91;4915703;29;20095;-50
2022/03/10 08:23:21;;;;;;;23.38;13.32;;;;;;;19.07;31.59;99332.09;4916996;29;20024;-50
2022/03/10 08:25:47;;;;;;;21.42;13.52;;;;;;;19.04;31.20;99337.91;4915615;29;20039;-50
2022/03/10 08:28:13;;;;;;;16.75;13.05;;;;;;;18.94;31.91;99338.53;4916915;29;20027;-50
2022/03/10 08:30:39;;;;;;;18.92;12.25;;;;;;;19.49;32.01;99336.25;4915320;29;20040;-50
2022/03/10 08:33:05;;;;;;;20.75;12.98;;;;;;;19.64;31.92;99336.47;4916814;29;20024;-50
2022/03/10 08:35:32;;;;;;;15.90;11.65;;;;;;;20.03;31.12;99328.53;4916639;29;20040;-50
2022/03/10 08:37:58;;;;;;;20.17;12.27;;;;;;;20.67;30.26;99324.53;4916721;29;20099;-50
2022/03/10 08:40:25;;;;;;;20.70;11.32;;;;;;;20.85;28.91;99329.50;4916511;29;20132;-50
2022/03/10 08:42:52;;;;;;;16.27;11.93;;;;;;;20.02;29.60;99331.44;4916614;29;20027;-51
2022/03/10 08:45:19;;;;;;;18.52;9.98;;;;;;;19.26;32.90;99326.56;4916565;29;20409;-50
2022/03/10 08:47:45;;;;;;;14.00;10.00;;;;;;;18.65;33.24;99326.25;4916484;29;20099;-50
2022/03/10 08:50:11;;;;;;;102.03;92.18;;;;;;;18.76;34.46;99325.41;4916449;29;20079;-50
2022/03/10 08:52:38;;;;;;;60.58;54.28;;;;;;;18.97;32.25;99321.28;4915106;29;20028;-50
2022/03/10 08:55:05;;;;;;;23.85;14.30;;;;;;;19.53;32.13;99321.41;4915012;29;20054;-50
2022/03/10 08:57:32;;;;;;;28.27;16.30;;;;;;;20.50;30.22;99312.06;4915053;29;20024;-50
2022/03/10 08:59:58;;;;;;;26.55;16.98;;;;;;;20.85;29.36;99300.16;4914999;29;20039;-50
2022/03/10 09:02:24;;;;;;;13.82;11.63;;;;;;;21.48;28.92;99289.72;4916313;29;20024;-50
2022/03/10 09:04:50;;;;;;;9.02;6.80;;;;;;;22.14;28.22;99299.19;4916244;29;20052;-50
2022/03/10 09:07:16;;;;;;;17.50;9.70;;;;;;;22.78;27.85;99290.03;4916152;29;20020;-51
2022/03/10 09:09:42;;;;;;;8.07;6.50;;;;;;;23.43;27.04;99286.84;4916211;29;20114;-51
2022/03/10 09:12:08;;;;;;;10.65;6.40;;;;;;;23.57;26.26;99290.56;4916137;29;20095;-51
2022/03/10 09:14:34;;;;;;;7.15;5.32;;;;;;;24.14;26.14;99285.84;4914466;29;20135;-50
2022/03/10 09:17:00;;;;;;;6.68;5.90;;;;;;;24.35;24.99;99291.09;4914856;29;20043;-50
2022/03/10 09:19:26;;;;;;;7.25;5.57;;;;;;;24.72;24.46;99282.59;4915961;29;20402;-50
2022/03/10 09:21:52;;;;;;;9.25;6.75;;;;;;;25.11;25.99;99279.06;4915909;29;20131;-50
2022/03/10 09:24:18;;;;;;;9.63;5.75;;;;;;;25.48;23.17;99277.72;4916078;29;20035;-50
2022/03/10 09:26:44;;;;;;;12.05;10.85;;;;;;;25.56;22.88;99284.34;4914606;29;20031;-50
2022/03/10 09:29:11;;;;;;;8.77;5.13;;;;;;;25.07;23.00;99283.41;4915838;29;20032;-50
2022/03/10 09:31:37;;;;;;;12.10;6.60;;;;;;;24.84;23.47;99291.09;4915748;29;20107;-49
2022/03/10 09:34:04;;;;;;;9.35;6.07;;;;;;;25.04;23.01;99284.00;4915798;29;20031;-50
2022/03/10 09:36:31;;;;;;;5.50;4.75;;;;;;;24.90;23.26;99268.50;4915784;29;20024;-50
2022/03/10 09:38:57;;;;;;;15.60;7.60;;;;;;;24.90;23.68;99284.63;4914456;29;20064;-50
2022/03/10 09:41:22;;;;;;;7.30;4.55;;;;;;;24.91;22.92;99274.66;4915731;29;20484;-50
2022/03/10 09:43:49;;;;;;;11.52;5.53;;;;;;;24.28;23.87;99278.81;4915210;29;20111;-50
2022/03/10 09:46:15;;;;;;;9.38;4.80;;;;;;;24.05;23.94;99296.34;4915631;29;20031;-51
2022/03/10 09:48:41;;;;;;;7.65;5.00;;;;;;;23.56;24.18;99286.25;4914383;29;20028;-50
2022/03/10 09:51:08;;;;;;;7.20;4.43;;;;;;;23.46;24.56;99276.38;4914344;29;20078;-50
2022/03/10 09:53:35;;;;;;;6.95;5.18;;;;;;;23.69;24.78;99288.38;4915526;29;20060;-51
2022/03/10 09:56:05;;;;;;;6.53;4.50;;;;;;;23.57;24.11;99277.16;4914419;29;20047;-50
2022/03/10 09:58:33;;;;;;;8.20;4.00;;;;;;;23.47;24.77;99274.50;4915544;29;20057;-51
2022/03/10 10:01:09;;;;;;;9.48;4.68;;;;;;;23.56;25.02;99272.88;4915516;29;20086;-51
2022/03/10 10:03:35;;;;;;;7.28;4.53;;;;;;;23.15;24.99;99248.81;4914200;29;20043;-51
2022/03/10 10:06:03;;;;;;;15.75;4.88;;;;;;;22.80;26.16;99269.16;4915820;29;20391;-50
2022/03/10 10:08:34;;;;;;;7.32;4.95;;;;;;;23.19;25.62;99271.31;4914202;29;20032;-51
2022/03/10 10:11:01;;;;;;;8.85;4.95;;;;;;;23.31;25.35;99279.88;4915542;29;20024;-50
2022/03/10 10:13:31;;;;;;;9.32;5.53;;;;;;;22.90;25.61;99276.38;4915182;29;20063;-51
2022/03/10 10:15:59;;;;;;;9.27;5.60;;;;;;;22.86;26.23;99270.75;4914299;29;20047;-50
2022/03/10 10:18:26;;;;;;;10.52;6.00;;;;;;;22.78;26.34;99273.97;4898562;29;20068;-50
2022/03/10 10:20:55;;;;;;;8.48;5.40;;;;;;;23.37;25.52;99269.16;4915381;29;20032;-50
2022/03/10 10:23:24;;;;;;;12.02;5.50;;;;;;;23.43;25.72;99270.75;4915394;29;20020;-50
2022/03/10 10:25:53;;;;;;;10.80;5.22;;;;;;;23.78;25.21;99267.22;4915309;29;20096;-50
2022/03/10 10:28:23;;;;;;;7.45;5.22;;;;;;;23.93;25.20;99258.31;4915309;29;20028;-50
2022/03/10 10:30:53;;;;;;;11.55;5.20;;;;;;;24.11;24.80;99255.03;4915316;29;20028;-50
2022/03/10 10:33:19;;;;;;;12.27;5.22;;;;;;;23.84;25.43;99257.28;4915267;29;20423;-51
2022/03/10 10:35:45;;;;;;;5.75;4.95;;;;;;;23.79;24.91;99254.63;4915169;29;20122;-49
2022/03/10 10:38:26;;;;;;;6.95;4.30;;;;;;;23.83;24.95;99250.31;4915264;29;20020;-51
2022/03/10 10:40:55;;;;;;;7.03;3.63;;;;;;;24.23;24.11;99246.66;4914018;29;20096;-50
2022/03/10 10:43:21;;;;;;;6.22;4.03;;;;;;;24.27;24.16;99249.59;4915223;29;20375;-50
2022/03/10 10:45:48;;;;;;;4.65;3.47;;;;;;;24.15;23.63;99220.41;4915134;29;20031;-50
2022/03/10 10:48:14;;;;;;;7.40;3.38;;;;;;;23.88;23.68;99242.25;4915165;29;20024;-50
2022/03/10 10:50:44;;;;;;;18.27;5.38;;;;;;;23.85;24.10;99224.84;4915156;29;20030;-51
2022/03/10 10:53:30;;;;;;;5.75;3.55;;;;;;;23.53;23.77;99225.19;4915195;29;20029;-51
2022/03/10 10:55:57;;;;;;;7.57;3.40;;;;;;;22.89;24.91;99232.75;4918471;29;20466;-50
2022/03/10 10:58:25;;;;;;;4.72;3.22;;;;;;;22.68;25.05;99233.81;4918581;29;20225;-50
2022/03/10 11:00:51;;;;;;;4.80;3.83;;;;;;;22.37;25.22;99238.31;4917213;29;20120;-51
2022/03/10 11:03:31;;;;;;;6.88;3.60;;;;;;;22.11;25.60;99220.31;4917179;29;20142;-50
2022/03/10 11:05:58;;;;;;;5.28;3.53;;;;;;;21.64;26.09;99215.84;4918691;29;20032;-51
2022/03/10 11:08:25;;;;;;;8.25;3.75;;;;;;;21.53;26.31;99208.81;4918355;29;20029;-50
2022/03/10 11:10:53;;;;;;;4.47;3.50;;;;;;;21.64;26.65;99210.50;4918356;29;20028;-50
2022/03/10 11:13:19;;;;;;;4.78;3.30;;;;;;;21.83;26.43;99221.56;4916752;29;20059;-50
2022/03/10 11:15:47;;;;;;;7.80;4.28;;;;;;;21.58;26.55;99213.41;4916776;29;20024;-51
2022/03/10 11:18:14;;;;;;;6.05;4.03;;;;;;;21.62;26.69;99217.16;4918133;29;20282;-51
2022/03/10 11:20:45;;;;;;;7.82;3.80;;;;;;;21.81;26.75;99204.16;4918130;29;20028;-50
2022/03/10 11:23:22;;;;;;;8.93;4.22;;;;;;;21.93;26.43;99207.41;4918125;29;20433;-51